Terminal Aerodrome Forecast
Issued by NWS Twin Cities, MN

Home | Current Version | Previous Version | Text Only | Print | Product List | Glossary On
Versions: 1 2 3 4 5 6 7 8 9 10
000
FTUS43 KMPX 291100
TAFSTC
TAF
KSTC 291140Z 2912/3012 36006KT P6SM FEW110
     FM292100 33008KT P6SM SKC
     FM301000 31006KT P6SM FEW250=

USA.gov is the U.S. government's official web portal to all federal, state and local government web resources and services.